sensor_id;sensor_type;location;lat;lon;timestamp;temperature;humidity
8664;DHT22;4369;47.842;13.096;2023-06-10T00:02:14;16.40;1.00
8664;DHT22;4369;47.842;13.096;2023-06-10T00:04:42;16.30;1.00
8664;DHT22;4369;47.842;13.096;2023-06-10T00:07:09;16.30;1.00
8664;DHT22;4369;47.842;13.096;2023-06-10T00:09:37;16.30;1.00
8664;DHT22;4369;47.842;13.096;2023-06-10T00:12:05;16.30;1.00
8664;DHT22;4369;47.842;13.096;2023-06-10T00:14:33;16.30;1.00
8664;DHT22;4369;47.842;13.096;2023-06-10T00:17:00;16.30;1.00
8664;DHT22;4369;47.842;13.096;2023-06-10T00:19:28;16.20;1.00
8664;DHT22;4369;47.842;13.096;2023-06-10T00:21:55;16.20;1.00
8664;DHT22;4369;47.842;13.096;2023-06-10T00:24:22;16.20;1.00
8664;DHT22;4369;47.842;13.096;2023-06-10T00:26:49;16.20;1.00
8664;DHT22;4369;47.842;13.096;2023-06-10T00:29:16;16.20;1.00
8664;DHT22;4369;47.842;13.096;2023-06-10T00:31:44;16.10;1.00
8664;DHT22;4369;47.842;13.096;2023-06-10T00:34:12;16.10;1.00
8664;DHT22;4369;47.842;13.096;2023-06-10T00:36:40;16.10;1.00
8664;DHT22;4369;47.842;13.096;2023-06-10T00:39:08;16.10;1.00
8664;DHT22;4369;47.842;13.096;2023-06-10T00:41:35;16.10;1.00
8664;DHT22;4369;47.842;13.096;2023-06-10T00:44:02;16.10;1.00
8664;DHT22;4369;47.842;13.096;2023-06-10T00:46:29;16.10;1.00
8664;DHT22;4369;47.842;13.096;2023-06-10T00:48:57;16.00;1.00
8664;DHT22;4369;47.842;13.096;2023-06-10T00:51:25;16.00;1.00
8664;DHT22;4369;47.842;13.096;2023-06-10T00:53:54;16.00;1.00
8664;DHT22;4369;47.842;13.096;2023-06-10T00:56:22;15.90;1.00
8664;DHT22;4369;47.842;13.096;2023-06-10T00:58:48;15.90;1.00
8664;DHT22;4369;47.842;13.096;2023-06-10T01:01:16;16.00;1.00
8664;DHT22;4369;47.842;13.096;2023-06-10T01:03:43;15.90;1.00
8664;DHT22;4369;47.842;13.096;2023-06-10T01:06:28;15.90;1.00
8664;DHT22;4369;47.842;13.096;2023-06-10T01:09:05;15.80;1.00
8664;DHT22;4369;47.842;13.096;2023-06-10T01:11:39;15.80;1.00
8664;DHT22;4369;47.842;13.096;2023-06-10T01:14:08;15.70;1.00
8664;DHT22;4369;47.842;13.096;2023-06-10T01:16:36;15.60;3.20
8664;DHT22;4369;47.842;13.096;2023-06-10T01:19:06;15.70;16.90
8664;DHT22;4369;47.842;13.096;2023-06-10T01:21:34;15.60;21.70
8664;DHT22;4369;47.842;13.096;2023-06-10T01:24:01;15.60;26.50
8664;DHT22;4369;47.842;13.096;2023-06-10T01:26:30;15.60;29.20
8664;DHT22;4369;47.842;13.096;2023-06-10T01:29:03;15.60;48.40
8664;DHT22;4369;47.842;13.096;2023-06-10T01:31:38;15.50;52.00
8664;DHT22;4369;47.842;13.096;2023-06-10T01:34:12;15.50;66.90
8664;DHT22;4369;47.842;13.096;2023-06-10T01:36:41;15.50;87.10
8664;DHT22;4369;47.842;13.096;2023-06-10T01:39:11;15.50;91.30
8664;DHT22;4369;47.842;13.096;2023-06-10T01:41:39;15.50;92.10
8664;DHT22;4369;47.842;13.096;2023-06-10T01:44:06;15.50;99.40
8664;DHT22;4369;47.842;13.096;2023-06-10T01:46:33;15.40;99.90
8664;DHT22;4369;47.842;13.096;2023-06-10T01:49:00;15.40;99.90
8664;DHT22;4369;47.842;13.096;2023-06-10T01:51:27;15.40;99.90
8664;DHT22;4369;47.842;13.096;2023-06-10T01:53:55;15.30;99.90
8664;DHT22;4369;47.842;13.096;2023-06-10T01:56:22;15.30;99.90
8664;DHT22;4369;47.842;13.096;2023-06-10T01:58:49;15.30;99.90
8664;DHT22;4369;47.842;13.096;2023-06-10T02:01:16;15.30;99.90
8664;DHT22;4369;47.842;13.096;2023-06-10T02:03:43;15.30;99.90
8664;DHT22;4369;47.842;13.096;2023-06-10T02:06:09;15.30;99.90
8664;DHT22;4369;47.842;13.096;2023-06-10T02:08:36;15.30;99.90
8664;DHT22;4369;47.842;13.096;2023-06-10T02:11:04;15.20;99.90
8664;DHT22;4369;47.842;13.096;2023-06-10T02:13:32;15.20;99.90
8664;DHT22;4369;47.842;13.096;2023-06-10T02:15:59;15.20;99.90
8664;DHT22;4369;47.842;13.096;2023-06-10T02:18:26;15.20;99.90
8664;DHT22;4369;47.842;13.096;2023-06-10T02:20:53;15.20;99.90
8664;DHT22;4369;47.842;13.096;2023-06-10T02:23:20;15.10;99.90
8664;DHT22;4369;47.842;13.096;2023-06-10T02:25:47;15.00;99.90
8664;DHT22;4369;47.842;13.096;2023-06-10T02:28:15;15.00;99.90
8664;DHT22;4369;47.842;13.096;2023-06-10T02:30:42;15.00;99.90
8664;DHT22;4369;47.842;13.096;2023-06-10T02:33:09;14.90;99.90
8664;DHT22;4369;47.842;13.096;2023-06-10T02:35:36;14.90;99.90
8664;DHT22;4369;47.842;13.096;2023-06-10T02:38:03;14.80;99.90
8664;DHT22;4369;47.842;13.096;2023-06-10T02:40:31;14.80;99.90
8664;DHT22;4369;47.842;13.096;2023-06-10T02:42:58;14.80;99.90
8664;DHT22;4369;47.842;13.096;2023-06-10T02:45:26;14.70;99.90
8664;DHT22;4369;47.842;13.096;2023-06-10T02:47:53;14.70;99.90
8664;DHT22;4369;47.842;13.096;2023-06-10T02:50:20;14.70;99.90
8664;DHT22;4369;47.842;13.096;2023-06-10T02:52:48;14.70;99.90
8664;DHT22;4369;47.842;13.096;2023-06-10T02:55:15;14.70;99.90
8664;DHT22;4369;47.842;13.096;2023-06-10T02:57:42;14.70;99.90
8664;DHT22;4369;47.842;13.096;2023-06-10T03:00:09;14.60;99.90
8664;DHT22;4369;47.842;13.096;2023-06-10T03:02:38;14.70;99.90
8664;DHT22;4369;47.842;13.096;2023-06-10T03:05:06;14.60;99.90
8664;DHT22;4369;47.842;13.096;2023-06-10T03:07:36;14.60;99.90
8664;DHT22;4369;47.842;13.096;2023-06-10T03:10:03;14.60;99.90
8664;DHT22;4369;47.842;13.096;2023-06-10T03:12:30;14.60;99.90
8664;DHT22;4369;47.842;13.096;2023-06-10T03:14:57;14.60;99.90
8664;DHT22;4369;47.842;13.096;2023-06-10T03:17:24;14.60;99.90
8664;DHT22;4369;47.842;13.096;2023-06-10T03:19:52;14.60;99.90
8664;DHT22;4369;47.842;13.096;2023-06-10T03:22:19;14.60;99.90
8664;DHT22;4369;47.842;13.096;2023-06-10T03:24:46;14.60;99.90
8664;DHT22;4369;47.842;13.096;2023-06-10T03:27:16;14.60;99.90
8664;DHT22;4369;47.842;13.096;2023-06-10T03:29:43;14.50;99.90
8664;DHT22;4369;47.842;13.096;2023-06-10T03:32:10;14.50;99.90
8664;DHT22;4369;47.842;13.096;2023-06-10T03:34:37;14.50;99.90
8664;DHT22;4369;47.842;13.096;2023-06-10T03:37:05;14.40;99.90
8664;DHT22;4369;47.842;13.096;2023-06-10T03:39:32;14.40;99.90
8664;DHT22;4369;47.842;13.096;2023-06-10T03:41:59;14.50;99.90
8664;DHT22;4369;47.842;13.096;2023-06-10T03:44:26;14.50;99.90
8664;DHT22;4369;47.842;13.096;2023-06-10T03:46:54;14.50;99.90
8664;DHT22;4369;47.842;13.096;2023-06-10T03:49:20;14.50;99.90
8664;DHT22;4369;47.842;13.096;2023-06-10T03:51:52;14.50;99.90
8664;DHT22;4369;47.842;13.096;2023-06-10T03:54:20;14.50;99.90
8664;DHT22;4369;47.842;13.096;2023-06-10T03:56:47;14.50;99.90
8664;DHT22;4369;47.842;13.096;2023-06-10T03:59:14;14.40;99.90
8664;DHT22;4369;47.842;13.096;2023-06-10T04:01:41;14.40;99.90
8664;DHT22;4369;47.842;13.096;2023-06-10T04:04:09;14.50;99.90
8664;DHT22;4369;47.842;13.096;2023-06-10T04:06:36;14.50;99.90
8664;DHT22;4369;47.842;13.096;2023-06-10T04:09:04;14.60;99.90
8664;DHT22;4369;47.842;13.096;2023-06-10T04:11:32;14.50;99.90
8664;DHT22;4369;47.842;13.096;2023-06-10T04:13:59;14.60;99.90
8664;DHT22;4369;47.842;13.096;2023-06-10T04:16:26;14.70;99.90
8664;DHT22;4369;47.842;13.096;2023-06-10T04:18:53;14.70;99.90
8664;DHT22;4369;47.842;13.096;2023-06-10T04:21:21;14.80;99.90
8664;DHT22;4369;47.842;13.096;2023-06-10T04:23:48;14.90;99.90
8664;DHT22;4369;47.842;13.096;2023-06-10T04:26:15;14.90;99.90
8664;DHT22;4369;47.842;13.096;2023-06-10T04:28:44;15.10;99.90
8664;DHT22;4369;47.842;13.096;2023-06-10T04:31:11;15.10;99.90
8664;DHT22;4369;47.842;13.096;2023-06-10T04:33:38;15.20;99.90
8664;DHT22;4369;47.842;13.096;2023-06-10T04:36:05;15.20;99.90
8664;DHT22;4369;47.842;13.096;2023-06-10T04:38:33;15.30;99.90
8664;DHT22;4369;47.842;13.096;2023-06-10T04:41:00;15.50;99.90
8664;DHT22;4369;47.842;13.096;2023-06-10T04:43:27;15.50;99.90
8664;DHT22;4369;47.842;13.096;2023-06-10T04:45:56;15.60;99.90
8664;DHT22;4369;47.842;13.096;2023-06-10T04:48:23;15.60;99.90
8664;DHT22;4369;47.842;13.096;2023-06-10T04:50:50;15.70;99.90
8664;DHT22;4369;47.842;13.096;2023-06-10T04:53:17;15.80;99.90
8664;DHT22;4369;47.842;13.096;2023-06-10T04:55:44;15.80;99.90
8664;DHT22;4369;47.842;13.096;2023-06-10T04:58:11;15.90;99.90
8664;DHT22;4369;47.842;13.096;2023-06-10T05:00:37;15.90;99.90
8664;DHT22;4369;47.842;13.096;2023-06-10T05:10:42;15.80;99.90
8664;DHT22;4369;47.842;13.096;2023-06-10T05:13:09;15.80;99.90
8664;DHT22;4369;47.842;13.096;2023-06-10T05:15:36;15.80;99.90
8664;DHT22;4369;47.842;13.096;2023-06-10T05:18:03;15.80;99.90
8664;DHT22;4369;47.842;13.096;2023-06-10T05:20:30;15.70;99.90
8664;DHT22;4369;47.842;13.096;2023-06-10T05:22:57;15.70;99.90
8664;DHT22;4369;47.842;13.096;2023-06-10T05:25:26;15.90;99.90
8664;DHT22;4369;47.842;13.096;2023-06-10T05:27:54;15.90;99.90
8664;DHT22;4369;47.842;13.096;2023-06-10T05:30:21;15.90;99.90
8664;DHT22;4369;47.842;13.096;2023-06-10T05:32:50;16.00;99.90
8664;DHT22;4369;47.842;13.096;2023-06-10T05:35:17;16.10;99.90
8664;DHT22;4369;47.842;13.096;2023-06-10T05:37:44;16.20;99.90
8664;DHT22;4369;47.842;13.096;2023-06-10T05:40:11;16.30;99.90
8664;DHT22;4369;47.842;13.096;2023-06-10T05:42:38;16.40;99.90
8664;DHT22;4369;47.842;13.096;2023-06-10T05:45:08;16.50;99.90
8664;DHT22;4369;47.842;13.096;2023-06-10T05:47:35;16.50;99.90
8664;DHT22;4369;47.842;13.096;2023-06-10T05:50:02;16.50;99.90
8664;DHT22;4369;47.842;13.096;2023-06-10T05:52:32;16.50;99.90
8664;DHT22;4369;47.842;13.096;2023-06-10T05:55:02;16.60;99.90
8664;DHT22;4369;47.842;13.096;2023-06-10T05:57:29;16.60;99.90
8664;DHT22;4369;47.842;13.096;2023-06-10T05:59:55;16.60;99.90
8664;DHT22;4369;47.842;13.096;2023-06-10T06:02:24;16.70;99.90
8664;DHT22;4369;47.842;13.096;2023-06-10T06:04:50;16.70;99.90
8664;DHT22;4369;47.842;13.096;2023-06-10T06:07:18;16.90;99.90
8664;DHT22;4369;47.842;13.096;2023-06-10T06:09:46;16.80;99.90
8664;DHT22;4369;47.842;13.096;2023-06-10T06:14:39;16.90;99.90
8664;DHT22;4369;47.842;13.096;2023-06-10T06:17:06;17.00;99.90
8664;DHT22;4369;47.842;13.096;2023-06-10T06:19:34;17.10;99.90
8664;DHT22;4369;47.842;13.096;2023-06-10T06:22:07;17.10;99.90
8664;DHT22;4369;47.842;13.096;2023-06-10T06:24:45;17.10;99.90
8664;DHT22;4369;47.842;13.096;2023-06-10T06:27:12;17.20;99.90
8664;DHT22;4369;47.842;13.096;2023-06-10T06:29:39;17.30;99.90
8664;DHT22;4369;47.842;13.096;2023-06-10T06:32:21;17.40;99.90
8664;DHT22;4369;47.842;13.096;2023-06-10T06:37:19;17.60;99.90
8664;DHT22;4369;47.842;13.096;2023-06-10T06:50:00;18.00;99.90
8664;DHT22;4369;47.842;13.096;2023-06-10T07:10:36;18.60;99.90
8664;DHT22;4369;47.842;13.096;2023-06-10T07:18:41;19.00;99.90
8664;DHT22;4369;47.842;13.096;2023-06-10T07:21:08;19.10;99.90
8664;DHT22;4369;47.842;13.096;2023-06-10T07:23:35;19.10;99.90
8664;DHT22;4369;47.842;13.096;2023-06-10T07:26:03;19.20;99.90
8664;DHT22;4369;47.842;13.096;2023-06-10T07:28:30;19.30;99.90
8664;DHT22;4369;47.842;13.096;2023-06-10T07:30:57;19.30;99.90
8664;DHT22;4369;47.842;13.096;2023-06-10T07:33:24;19.40;99.90
8664;DHT22;4369;47.842;13.096;2023-06-10T07:35:51;19.50;99.90
8664;DHT22;4369;47.842;13.096;2023-06-10T07:38:18;19.70;99.90
8664;DHT22;4369;47.842;13.096;2023-06-10T07:40:45;19.80;99.90
8664;DHT22;4369;47.842;13.096;2023-06-10T07:43:13;20.00;99.90
8664;DHT22;4369;47.842;13.096;2023-06-10T07:45:40;20.20;99.90
8664;DHT22;4369;47.842;13.096;2023-06-10T07:48:07;20.20;99.90
8664;DHT22;4369;47.842;13.096;2023-06-10T07:50:34;20.40;97.30
8664;DHT22;4369;47.842;13.096;2023-06-10T07:53:01;20.30;94.60
8664;DHT22;4369;47.842;13.096;2023-06-10T07:55:28;20.20;82.00
8664;DHT22;4369;47.842;13.096;2023-06-10T07:57:55;20.20;93.60
8664;DHT22;4369;47.842;13.096;2023-06-10T08:00:24;20.30;99.90
8664;DHT22;4369;47.842;13.096;2023-06-10T08:02:50;20.30;97.30
8664;DHT22;4369;47.842;13.096;2023-06-10T08:05:17;20.50;97.20
8664;DHT22;4369;47.842;13.096;2023-06-10T08:07:44;20.50;70.20
8664;DHT22;4369;47.842;13.096;2023-06-10T08:10:11;20.60;86.80
8664;DHT22;4369;47.842;13.096;2023-06-10T08:12:38;20.80;69.30
8664;DHT22;4369;47.842;13.096;2023-06-10T08:15:06;21.10;53.80
8664;DHT22;4369;47.842;13.096;2023-06-10T08:17:34;21.20;21.80
8664;DHT22;4369;47.842;13.096;2023-06-10T08:20:01;21.20;14.00
8664;DHT22;4369;47.842;13.096;2023-06-10T08:22:28;21.40;1.00
8664;DHT22;4369;47.842;13.096;2023-06-10T08:24:55;21.60;1.00
8664;DHT22;4369;47.842;13.096;2023-06-10T08:27:22;21.70;1.00
8664;DHT22;4369;47.842;13.096;2023-06-10T08:29:49;21.80;1.00
8664;DHT22;4369;47.842;13.096;2023-06-10T08:32:16;21.90;99.90
8664;DHT22;4369;47.842;13.096;2023-06-10T08:34:44;22.20;99.90
8664;DHT22;4369;47.842;13.096;2023-06-10T08:37:11;22.40;1.00
8664;DHT22;4369;47.842;13.096;2023-06-10T08:39:38;22.40;1.00
8664;DHT22;4369;47.842;13.096;2023-06-10T08:42:12;22.50;99.90
8664;DHT22;4369;47.842;13.096;2023-06-10T08:44:42;22.60;99.90
8664;DHT22;4369;47.842;13.096;2023-06-10T08:47:13;22.70;99.90
8664;DHT22;4369;47.842;13.096;2023-06-10T08:49:46;22.70;99.90
8664;DHT22;4369;47.842;13.096;2023-06-10T08:52:15;22.90;99.90
8664;DHT22;4369;47.842;13.096;2023-06-10T08:54:46;23.00;99.90
8664;DHT22;4369;47.842;13.096;2023-06-10T08:57:15;23.10;18.70
8664;DHT22;4369;47.842;13.096;2023-06-10T08:59:43;23.10;34.60
8664;DHT22;4369;47.842;13.096;2023-06-10T09:02:10;23.30;1.00
8664;DHT22;4369;47.842;13.096;2023-06-10T09:04:37;23.40;1.00
8664;DHT22;4369;47.842;13.096;2023-06-10T09:07:06;23.50;1.00
8664;DHT22;4369;47.842;13.096;2023-06-10T09:09:34;23.60;1.00
8664;DHT22;4369;47.842;13.096;2023-06-10T09:12:02;23.50;1.00
8664;DHT22;4369;47.842;13.096;2023-06-10T09:14:29;23.70;1.00
8664;DHT22;4369;47.842;13.096;2023-06-10T09:16:55;23.80;1.00
8664;DHT22;4369;47.842;13.096;2023-06-10T09:19:23;24.00;1.00
8664;DHT22;4369;47.842;13.096;2023-06-10T09:21:51;24.00;1.00
8664;DHT22;4369;47.842;13.096;2023-06-10T09:24:21;24.10;1.00
8664;DHT22;4369;47.842;13.096;2023-06-10T09:26:48;24.10;1.00
8664;DHT22;4369;47.842;13.096;2023-06-10T09:29:16;24.20;1.00
8664;DHT22;4369;47.842;13.096;2023-06-10T09:31:44;24.30;1.00
8664;DHT22;4369;47.842;13.096;2023-06-10T09:34:12;24.30;1.00
8664;DHT22;4369;47.842;13.096;2023-06-10T09:36:40;24.20;1.00
8664;DHT22;4369;47.842;13.096;2023-06-10T09:39:15;24.30;1.00
8664;DHT22;4369;47.842;13.096;2023-06-10T09:41:45;24.30;1.00
8664;DHT22;4369;47.842;13.096;2023-06-10T09:44:13;24.40;1.00
8664;DHT22;4369;47.842;13.096;2023-06-10T09:46:41;24.50;1.00
8664;DHT22;4369;47.842;13.096;2023-06-10T09:49:09;24.50;1.00
8664;DHT22;4369;47.842;13.096;2023-06-10T09:51:36;24.70;1.00
8664;DHT22;4369;47.842;13.096;2023-06-10T09:54:03;24.70;1.00
8664;DHT22;4369;47.842;13.096;2023-06-10T09:56:33;24.90;1.00
8664;DHT22;4369;47.842;13.096;2023-06-10T09:59:02;25.20;1.00
8664;DHT22;4369;47.842;13.096;2023-06-10T10:01:32;25.20;1.00
8664;DHT22;4369;47.842;13.096;2023-06-10T10:03:59;25.30;1.00
8664;DHT22;4369;47.842;13.096;2023-06-10T10:06:27;25.60;1.00
8664;DHT22;4369;47.842;13.096;2023-06-10T10:08:54;25.90;1.00
8664;DHT22;4369;47.842;13.096;2023-06-10T10:11:22;26.00;1.00
8664;DHT22;4369;47.842;13.096;2023-06-10T10:13:50;26.10;1.00
8664;DHT22;4369;47.842;13.096;2023-06-10T10:16:22;25.90;1.00
8664;DHT22;4369;47.842;13.096;2023-06-10T10:18:53;26.00;1.00
8664;DHT22;4369;47.842;13.096;2023-06-10T10:21:23;26.10;1.00
8664;DHT22;4369;47.842;13.096;2023-06-10T10:23:56;25.80;1.00
8664;DHT22;4369;47.842;13.096;2023-06-10T10:26:26;26.00;1.00
8664;DHT22;4369;47.842;13.096;2023-06-10T10:29:02;26.00;1.00
8664;DHT22;4369;47.842;13.096;2023-06-10T10:31:35;25.90;1.00
8664;DHT22;4369;47.842;13.096;2023-06-10T10:34:06;25.70;1.00
8664;DHT22;4369;47.842;13.096;2023-06-10T10:36:34;25.70;1.00
8664;DHT22;4369;47.842;13.096;2023-06-10T10:39:03;25.60;1.00
8664;DHT22;4369;47.842;13.096;2023-06-10T10:41:31;25.40;1.00
8664;DHT22;4369;47.842;13.096;2023-06-10T10:43:59;25.40;1.00
8664;DHT22;4369;47.842;13.096;2023-06-10T10:46:27;25.50;1.00
8664;DHT22;4369;47.842;13.096;2023-06-10T10:48:56;25.40;1.00
8664;DHT22;4369;47.842;13.096;2023-06-10T10:51:24;25.40;1.00
8664;DHT22;4369;47.842;13.096;2023-06-10T10:54:10;25.30;1.00
8664;DHT22;4369;47.842;13.096;2023-06-10T10:56:37;25.30;1.00
8664;DHT22;4369;47.842;13.096;2023-06-10T10:59:05;25.20;1.00
8664;DHT22;4369;47.842;13.096;2023-06-10T11:01:40;25.20;1.00
8664;DHT22;4369;47.842;13.096;2023-06-10T11:04:09;25.10;1.00
8664;DHT22;4369;47.842;13.096;2023-06-10T11:06:36;25.00;1.00
8664;DHT22;4369;47.842;13.096;2023-06-10T11:09:25;25.30;1.00
8664;DHT22;4369;47.842;13.096;2023-06-10T11:11:53;25.60;1.00
8664;DHT22;4369;47.842;13.096;2023-06-10T11:14:26;25.70;1.00
8664;DHT22;4369;47.842;13.096;2023-06-10T11:16:57;25.90;1.00
8664;DHT22;4369;47.842;13.096;2023-06-10T11:19:36;26.00;1.00
8664;DHT22;4369;47.842;13.096;2023-06-10T11:22:06;26.10;1.00
8664;DHT22;4369;47.842;13.096;2023-06-10T11:24:33;26.10;1.00
8664;DHT22;4369;47.842;13.096;2023-06-10T11:27:17;26.00;1.00
8664;DHT22;4369;47.842;13.096;2023-06-10T11:29:58;25.70;1.00
8664;DHT22;4369;47.842;13.096;2023-06-10T11:32:29;25.50;1.00
8664;DHT22;4369;47.842;13.096;2023-06-10T11:34:58;25.10;1.00
8664;DHT22;4369;47.842;13.096;2023-06-10T11:37:25;24.90;1.00
8664;DHT22;4369;47.842;13.096;2023-06-10T11:39:53;24.60;1.00
8664;DHT22;4369;47.842;13.096;2023-06-10T11:42:20;24.50;1.00
8664;DHT22;4369;47.842;13.096;2023-06-10T11:44:48;24.40;1.00
8664;DHT22;4369;47.842;13.096;2023-06-10T11:47:16;24.10;1.00
8664;DHT22;4369;47.842;13.096;2023-06-10T11:49:43;24.20;1.00
8664;DHT22;4369;47.842;13.096;2023-06-10T11:52:12;23.90;1.00
8664;DHT22;4369;47.842;13.096;2023-06-10T11:54:39;23.90;1.00
8664;DHT22;4369;47.842;13.096;2023-06-10T11:57:06;23.80;1.00
8664;DHT22;4369;47.842;13.096;2023-06-10T11:59:34;23.90;1.00
8664;DHT22;4369;47.842;13.096;2023-06-10T12:02:01;23.90;1.00
8664;DHT22;4369;47.842;13.096;2023-06-10T12:04:28;24.10;1.00
8664;DHT22;4369;47.842;13.096;2023-06-10T12:06:55;24.30;1.00
8664;DHT22;4369;47.842;13.096;2023-06-10T12:09:25;24.50;1.00
8664;DHT22;4369;47.842;13.096;2023-06-10T12:11:54;25.00;21.50
8664;DHT22;4369;47.842;13.096;2023-06-10T12:14:53;25.20;2.30
8664;DHT22;4369;47.842;13.096;2023-06-10T12:17:20;25.30;1.00
8664;DHT22;4369;47.842;13.096;2023-06-10T12:19:48;25.40;1.00
8664;DHT22;4369;47.842;13.096;2023-06-10T12:22:15;25.70;1.00
8664;DHT22;4369;47.842;13.096;2023-06-10T12:24:56;25.90;1.00
8664;DHT22;4369;47.842;13.096;2023-06-10T12:27:25;26.30;1.00
8664;DHT22;4369;47.842;13.096;2023-06-10T12:29:53;26.50;1.00
8664;DHT22;4369;47.842;13.096;2023-06-10T12:32:20;26.70;1.00
8664;DHT22;4369;47.842;13.096;2023-06-10T12:34:50;26.20;1.00
8664;DHT22;4369;47.842;13.096;2023-06-10T12:37:28;25.70;1.00
8664;DHT22;4369;47.842;13.096;2023-06-10T12:40:00;25.10;99.90
8664;DHT22;4369;47.842;13.096;2023-06-10T12:42:28;24.70;99.90
8664;DHT22;4369;47.842;13.096;2023-06-10T12:44:56;24.80;99.90
8664;DHT22;4369;47.842;13.096;2023-06-10T12:47:29;24.50;1.00
8664;DHT22;4369;47.842;13.096;2023-06-10T12:49:58;24.30;99.90
8664;DHT22;4369;47.842;13.096;2023-06-10T12:52:25;24.20;90.70
8664;DHT22;4369;47.842;13.096;2023-06-10T12:54:52;24.10;99.90
8664;DHT22;4369;47.842;13.096;2023-06-10T12:57:21;23.70;1.00
8664;DHT22;4369;47.842;13.096;2023-06-10T12:59:48;23.20;99.90
8664;DHT22;4369;47.842;13.096;2023-06-10T13:02:18;23.30;99.90
8664;DHT22;4369;47.842;13.096;2023-06-10T13:04:46;23.60;1.00
8664;DHT22;4369;47.842;13.096;2023-06-10T13:07:13;23.70;1.00
8664;DHT22;4369;47.842;13.096;2023-06-10T13:09:40;23.90;1.00
8664;DHT22;4369;47.842;13.096;2023-06-10T13:12:07;23.70;99.90
8664;DHT22;4369;47.842;13.096;2023-06-10T13:14:37;23.60;1.00
8664;DHT22;4369;47.842;13.096;2023-06-10T13:17:04;23.50;1.00
8664;DHT22;4369;47.842;13.096;2023-06-10T13:19:32;23.30;1.00
8664;DHT22;4369;47.842;13.096;2023-06-10T13:21:59;23.20;99.90
8664;DHT22;4369;47.842;13.096;2023-06-10T13:24:26;23.10;86.90
8664;DHT22;4369;47.842;13.096;2023-06-10T13:26:53;23.00;1.00
8664;DHT22;4369;47.842;13.096;2023-06-10T13:29:20;23.00;99.90
8664;DHT22;4369;47.842;13.096;2023-06-10T13:31:48;22.90;1.00
8664;DHT22;4369;47.842;13.096;2023-06-10T13:34:15;22.90;99.90
8664;DHT22;4369;47.842;13.096;2023-06-10T13:36:42;23.00;84.30
8664;DHT22;4369;47.842;13.096;2023-06-10T13:39:09;23.00;1.00
8664;DHT22;4369;47.842;13.096;2023-06-10T13:41:36;23.00;1.00
8664;DHT22;4369;47.842;13.096;2023-06-10T13:44:04;23.10;99.90
8664;DHT22;4369;47.842;13.096;2023-06-10T13:46:31;23.10;1.00
8664;DHT22;4369;47.842;13.096;2023-06-10T13:49:00;23.20;1.00
8664;DHT22;4369;47.842;13.096;2023-06-10T13:51:27;23.10;1.00
8664;DHT22;4369;47.842;13.096;2023-06-10T13:53:54;23.30;1.00
8664;DHT22;4369;47.842;13.096;2023-06-10T13:56:21;23.40;1.00
8664;DHT22;4369;47.842;13.096;2023-06-10T13:58:48;23.50;1.00
8664;DHT22;4369;47.842;13.096;2023-06-10T14:01:15;23.60;1.00
8664;DHT22;4369;47.842;13.096;2023-06-10T14:03:42;23.70;1.00
8664;DHT22;4369;47.842;13.096;2023-06-10T14:06:10;23.70;1.00
8664;DHT22;4369;47.842;13.096;2023-06-10T14:08:38;24.20;1.00
8664;DHT22;4369;47.842;13.096;2023-06-10T14:11:06;25.50;99.90
8664;DHT22;4369;47.842;13.096;2023-06-10T14:13:33;27.40;35.20
8664;DHT22;4369;47.842;13.096;2023-06-10T14:16:00;29.20;1.00
8664;DHT22;4369;47.842;13.096;2023-06-10T14:18:28;29.50;1.00
8664;DHT22;4369;47.842;13.096;2023-06-10T14:20:55;29.00;1.00
8664;DHT22;4369;47.842;13.096;2023-06-10T14:23:23;28.80;1.00
8664;DHT22;4369;47.842;13.096;2023-06-10T14:25:51;28.60;1.00
8664;DHT22;4369;47.842;13.096;2023-06-10T14:28:18;28.10;1.00
8664;DHT22;4369;47.842;13.096;2023-06-10T14:30:45;27.70;1.00
8664;DHT22;4369;47.842;13.096;2023-06-10T14:33:11;27.50;1.00
8664;DHT22;4369;47.842;13.096;2023-06-10T14:35:39;27.80;1.00
8664;DHT22;4369;47.842;13.096;2023-06-10T14:38:06;28.10;1.00
8664;DHT22;4369;47.842;13.096;2023-06-10T14:40:34;28.10;1.00
8664;DHT22;4369;47.842;13.096;2023-06-10T14:43:01;27.80;1.00
8664;DHT22;4369;47.842;13.096;2023-06-10T14:45:35;27.80;1.00
8664;DHT22;4369;47.842;13.096;2023-06-10T14:48:02;27.70;1.00
8664;DHT22;4369;47.842;13.096;2023-06-10T14:50:29;27.80;1.00
8664;DHT22;4369;47.842;13.096;2023-06-10T14:52:56;28.00;1.00
8664;DHT22;4369;47.842;13.096;2023-06-10T14:55:23;28.00;1.00
8664;DHT22;4369;47.842;13.096;2023-06-10T14:57:51;28.00;1.00
8664;DHT22;4369;47.842;13.096;2023-06-10T15:00:18;27.70;1.00
8664;DHT22;4369;47.842;13.096;2023-06-10T15:02:48;27.60;1.00
8664;DHT22;4369;47.842;13.096;2023-06-10T15:05:14;27.50;1.00
8664;DHT22;4369;47.842;13.096;2023-06-10T15:07:42;27.30;1.00
8664;DHT22;4369;47.842;13.096;2023-06-10T15:10:10;27.10;1.00
8664;DHT22;4369;47.842;13.096;2023-06-10T15:12:37;27.20;1.00
8664;DHT22;4369;47.842;13.096;2023-06-10T15:15:06;27.10;1.00
8664;DHT22;4369;47.842;13.096;2023-06-10T15:17:33;27.20;1.00
8664;DHT22;4369;47.842;13.096;2023-06-10T15:20:00;27.40;1.00
8664;DHT22;4369;47.842;13.096;2023-06-10T15:22:27;27.70;1.00
8664;DHT22;4369;47.842;13.096;2023-06-10T15:24:54;27.80;1.00
8664;DHT22;4369;47.842;13.096;2023-06-10T15:27:21;27.90;1.00
8664;DHT22;4369;47.842;13.096;2023-06-10T15:29:48;27.90;1.00
8664;DHT22;4369;47.842;13.096;2023-06-10T15:32:16;28.10;1.00
8664;DHT22;4369;47.842;13.096;2023-06-10T15:34:43;28.00;1.00
8664;DHT22;4369;47.842;13.096;2023-06-10T15:37:13;28.00;1.00
8664;DHT22;4369;47.842;13.096;2023-06-10T15:39:40;28.20;1.00
8664;DHT22;4369;47.842;13.096;2023-06-10T15:42:07;28.20;1.00
8664;DHT22;4369;47.842;13.096;2023-06-10T15:44:34;28.10;1.00
8664;DHT22;4369;47.842;13.096;2023-06-10T15:47:01;28.00;1.00
8664;DHT22;4369;47.842;13.096;2023-06-10T15:49:29;27.70;1.00
8664;DHT22;4369;47.842;13.096;2023-06-10T15:51:56;27.40;1.00
8664;DHT22;4369;47.842;13.096;2023-06-10T15:54:23;27.00;1.00
8664;DHT22;4369;47.842;13.096;2023-06-10T15:56:49;26.50;1.00
8664;DHT22;4369;47.842;13.096;2023-06-10T15:59:16;26.20;1.00
8664;DHT22;4369;47.842;13.096;2023-06-10T16:01:43;26.10;1.00
8664;DHT22;4369;47.842;13.096;2023-06-10T16:04:10;26.00;1.00
8664;DHT22;4369;47.842;13.096;2023-06-10T16:06:38;25.90;1.00
8664;DHT22;4369;47.842;13.096;2023-06-10T16:09:05;25.90;1.00
8664;DHT22;4369;47.842;13.096;2023-06-10T16:11:32;25.90;1.00
8664;DHT22;4369;47.842;13.096;2023-06-10T16:13:59;26.00;1.00
8664;DHT22;4369;47.842;13.096;2023-06-10T16:16:26;25.70;1.00
8664;DHT22;4369;47.842;13.096;2023-06-10T16:18:53;25.50;1.00
8664;DHT22;4369;47.842;13.096;2023-06-10T16:21:19;25.20;1.00
8664;DHT22;4369;47.842;13.096;2023-06-10T16:23:48;24.60;1.00
8664;DHT22;4369;47.842;13.096;2023-06-10T16:26:15;24.50;1.00
8664;DHT22;4369;47.842;13.096;2023-06-10T16:28:42;24.30;1.00
8664;DHT22;4369;47.842;13.096;2023-06-10T16:31:09;23.80;1.00
8664;DHT22;4369;47.842;13.096;2023-06-10T16:33:35;23.60;1.00
8664;DHT22;4369;47.842;13.096;2023-06-10T16:36:03;23.60;1.00
8664;DHT22;4369;47.842;13.096;2023-06-10T16:38:30;23.80;1.00
8664;DHT22;4369;47.842;13.096;2023-06-10T16:40:58;23.90;1.00
8664;DHT22;4369;47.842;13.096;2023-06-10T16:43:25;24.00;1.00
8664;DHT22;4369;47.842;13.096;2023-06-10T16:45:53;24.10;1.00
8664;DHT22;4369;47.842;13.096;2023-06-10T16:48:24;24.20;1.00